KTKI

McKinney National Airport

Dallas, Texas, USA
METAR KTKI 211953Z 19018G24KT 10SM FEW070 BKN100 22/17 A2977 RMK AO2 PK WND 19028/1857 LTG DSNT S RAB04E14 SLP082 P0000 T02220167
Observed Flight Rules
Jan-21 @ 19:53 UTC (24 minutes ago) Visual Flight Rules
Wind Visibility Clouds
190° at 18 knots
 Gusting to 24 knots
10 miles
  • Few at 7,000' AGL
  • Broken at 10,000' AGL
Temperatures Readings Precipitation
Current 22°C / 72°F
Dewpoint 17°C / 63°F
Humidity 73%
Altimeter 29.77" Hg
Pressure 1008.2 hPa
Elevation 179
Current Rain 0.005
METAR KTKI 211953Z 19018G24KT 10SM FEW070 BKN100 22/17 A2977 RMK AO2 PK WND 19028/1857 LTG DSNT S RAB04E14 SLP082 P0000 T02220167
Observed Flight Rules
Jan-21 @ 19:53 UTC
(24 minutes ago)
VFR
Wind Visibility
190° at 18 knots
 Gusting to 24 knots
10 miles
Clouds
  • Few at 7,000' AGL
  • Broken at 10,000' AGL
Temperature Dewpoint
22°C / 72°F 17°C / 63°F
Humidity Altimeter Pressure
73% 29.77" Hg 1008.2 hPa
Current Rain
0.005